sensor_id;sensor_type;location;lat;lon;timestamp;temperature;humidity
5956;DHT22;3004;48.080;11.600;2023-06-19T00:08:41;15.80;99.90
5956;DHT22;3004;48.080;11.600;2023-06-19T00:11:28;15.90;99.90
5956;DHT22;3004;48.080;11.600;2023-06-19T00:14:18;15.90;99.90
5956;DHT22;3004;48.080;11.600;2023-06-19T00:16:58;15.80;99.90
5956;DHT22;3004;48.080;11.600;2023-06-19T00:19:36;15.70;99.90
5956;DHT22;3004;48.080;11.600;2023-06-19T00:22:39;15.70;99.90
5956;DHT22;3004;48.080;11.600;2023-06-19T00:25:42;15.70;99.90
5956;DHT22;3004;48.080;11.600;2023-06-19T00:28:37;15.80;99.90
5956;DHT22;3004;48.080;11.600;2023-06-19T00:31:45;15.70;99.90
5956;DHT22;3004;48.080;11.600;2023-06-19T00:34:56;15.70;99.90
5956;DHT22;3004;48.080;11.600;2023-06-19T00:48:03;16.00;99.90
5956;DHT22;3004;48.080;11.600;2023-06-19T00:51:27;16.00;99.90
5956;DHT22;3004;48.080;11.600;2023-06-19T00:54:04;16.10;99.90
5956;DHT22;3004;48.080;11.600;2023-06-19T01:03:19;16.10;99.90
5956;DHT22;3004;48.080;11.600;2023-06-19T01:06:12;16.10;99.90
5956;DHT22;3004;48.080;11.600;2023-06-19T01:08:54;16.10;99.90
5956;DHT22;3004;48.080;11.600;2023-06-19T01:11:46;16.20;99.90
5956;DHT22;3004;48.080;11.600;2023-06-19T01:14:48;16.20;99.90
5956;DHT22;3004;48.080;11.600;2023-06-19T01:17:40;16.30;99.90
5956;DHT22;3004;48.080;11.600;2023-06-19T01:20:29;16.20;99.90
5956;DHT22;3004;48.080;11.600;2023-06-19T01:23:26;16.40;99.90
5956;DHT22;3004;48.080;11.600;2023-06-19T01:26:26;16.40;99.90
5956;DHT22;3004;48.080;11.600;2023-06-19T01:29:35;16.40;99.90
5956;DHT22;3004;48.080;11.600;2023-06-19T01:32:47;16.40;99.90
5956;DHT22;3004;48.080;11.600;2023-06-19T01:35:38;16.50;99.90
5956;DHT22;3004;48.080;11.600;2023-06-19T01:52:26;16.70;99.90
5956;DHT22;3004;48.080;11.600;2023-06-19T01:59:16;16.70;99.90
5956;DHT22;3004;48.080;11.600;2023-06-19T02:01:58;16.70;99.90
5956;DHT22;3004;48.080;11.600;2023-06-19T02:04:33;16.60;99.90
5956;DHT22;3004;48.080;11.600;2023-06-19T02:07:13;16.70;99.90
5956;DHT22;3004;48.080;11.600;2023-06-19T02:09:45;16.70;99.90
5956;DHT22;3004;48.080;11.600;2023-06-19T02:12:16;16.70;99.90
5956;DHT22;3004;48.080;11.600;2023-06-19T02:14:47;16.60;99.90
5956;DHT22;3004;48.080;11.600;2023-06-19T02:17:23;16.60;99.90
5956;DHT22;3004;48.080;11.600;2023-06-19T02:23:47;16.60;99.90
5956;DHT22;3004;48.080;11.600;2023-06-19T02:26:43;16.60;99.90
5956;DHT22;3004;48.080;11.600;2023-06-19T02:29:26;16.60;99.90
5956;DHT22;3004;48.080;11.600;2023-06-19T09:29:40;25.00;99.90
5956;DHT22;3004;48.080;11.600;2023-06-19T09:45:31;25.50;99.90
5956;DHT22;3004;48.080;11.600;2023-06-19T10:01:41;25.40;99.90
5956;DHT22;3004;48.080;11.600;2023-06-19T10:04:13;25.60;99.90
5956;DHT22;3004;48.080;11.600;2023-06-19T10:39:06;26.30;99.90
5956;DHT22;3004;48.080;11.600;2023-06-19T10:51:24;26.40;99.90
5956;DHT22;3004;48.080;11.600;2023-06-19T10:54:33;26.50;99.90
5956;DHT22;3004;48.080;11.600;2023-06-19T10:57:33;26.70;99.90
5956;DHT22;3004;48.080;11.600;2023-06-19T11:00:25;26.60;99.90
5956;DHT22;3004;48.080;11.600;2023-06-19T11:24:48;26.20;99.90
